Loch Ness — H3VY — position and weather

sailwx.info

Track history (hours):
 
Tides and Currents Weather Stations Pressure Air Temp Water Temp Dewpoint Dewpoint Depression Visibility Wind Speed Wind Dir Waves Ship Positions

Loch Ness

Last reported at 2017-Oct-16 22:43 UTC. Time now 2017-Oct-18 03:58 UTC.
Position N 35°60' E 020°52'.

Length 200 m; draft 11.8 m.

Type: Cargo ship. MMSI: 374931000.

Date/timePositionNaut miles runAvg speedWind from/ knotsBaromVisibWave heightAir tempDewpointWater temp
2017-Oct-16 22:43N 35°60' E 020°52'211.5
2017-Oct-16 22:30N 35°60' E 020°49'711.6
2017-Oct-16 21:53N 35°59' E 020°40'511.4
2017-Oct-16 21:30N 35°59' E 020°34'611.5
2017-Oct-16 21:00N 35°59' E 020°27'611.6
2017-Oct-16 20:30N 35°59' E 020°20'711.7
2017-Oct-16 19:52N 35°59' E 020°11'611.6
2017-Oct-16 19:21N 35°59' E 020°04'511.5
2017-Oct-16 18:55N 35°59' E 019°58'811.7
2017-Oct-16 18:12N 35°59' E 019°47'7411.5
2017-Oct-16 11:48N 35°57' E 018°16'12911.6
2017-Oct-16 00:38N 35°56' E 015°36'211.5
2017-Oct-16 00:28N 35°56' E 015°34'611.4
2017-Oct-15 23:56N 35°55' E 015°26'611.6
2017-Oct-15 23:27N 35°55' E 015°19'511.8
2017-Oct-15 23:00N 35°54' E 015°13'611.6
2017-Oct-15 22:30N 35°54' E 015°06'611.6
2017-Oct-15 22:00N 35°53' E 014°59'611.9
2017-Oct-15 21:30N 35°53' E 014°51'4 7.4
2017-Oct-15 21:00N 35°53' E 014°47'0 0.2
2017-Oct-15 20:30N 35°53' E 014°47'0 0.0
2017-Oct-15 20:01N 35°53' E 014°47'0 0.0
2017-Oct-15 19:30N 35°53' E 014°47'0 0.0
2017-Oct-15 19:01N 35°53' E 014°47'0 0.0
2017-Oct-15 18:30N 35°53' E 014°47'0 0.0
2017-Oct-15 18:01N 35°53' E 014°47'0 0.2
2017-Oct-15 17:30N 35°53' E 014°47'0 0.2
2017-Oct-15 16:57N 35°53' E 014°47'0 0.0
2017-Oct-15 16:30N 35°53' E 014°47'0 0.0
2017-Oct-15 16:01N 35°53' E 014°47'0 0.0
2017-Oct-15 15:30N 35°53' E 014°47'0 0.0
2017-Oct-15 15:00N 35°53' E 014°47'0 0.0
2017-Oct-15 14:00N 35°53' E 014°47'0 0.0
2017-Oct-15 13:31N 35°53' E 014°47'0 0.0
2017-Oct-15 12:58N 35°53' E 014°47'0 0.2
2017-Oct-15 12:31N 35°53' E 014°47'0 0.5
2017-Oct-15 12:00N 35°53' E 014°46'2 4.3
2017-Oct-15 11:30N 35°54' E 014°44'510.1
2017-Oct-15 11:00N 35°58' E 014°40'612.0
2017-Oct-15 10:30N 36°02' E 014°34'611.9
2017-Oct-15 10:00N 36°07' E 014°30'611.8
2017-Oct-15 09:30N 36°11' E 014°25'611.8
2017-Oct-15 09:00N 36°16' E 014°21'612.0
2017-Oct-15 08:30N 36°21' E 014°17'612.1
2017-Oct-15 08:00N 36°26' E 014°13'612.3
2017-Oct-15 07:31N 36°32' E 014°09'612.6
2017-Oct-15 07:01N 36°37' E 014°05'612.8
2017-Oct-15 06:30N 36°41' E 013°59'612.8
2017-Oct-15 06:00N 36°45' E 013°53'612.7
2017-Oct-15 05:30N 36°49' E 013°46'612.7
2017-Oct-15 05:01N 36°52' E 013°39'612.7
2017-Oct-15 04:30N 36°56' E 013°33'612.6
2017-Oct-15 04:00N 36°59' E 013°26'612.4
2017-Oct-15 03:30N 37°02' E 013°19'812.2
2017-Oct-15 02:49N 37°07' E 013°11'512.2
2017-Oct-15 02:25N 37°10' E 013°06'711.9
2017-Oct-15 01:52N 37°13' E 012°59'411.8
2017-Oct-15 01:30N 37°16' E 012°54'611.9
2017-Oct-15 00:59N 37°19' E 012°48'611.9
2017-Oct-15 00:30N 37°22' E 012°41'611.9
2017-Oct-15 00:00N 37°25' E 012°35'33611.5
2017-Oct-13 18:48N 37°34' E 005°31'1211.5
2017-Oct-13 17:46N 37°32' E 005°17'1011.7
2017-Oct-13 16:53N 37°30' E 005°04'511.8
2017-Oct-13 16:27N 37°29' E 004°57'512.0
2017-Oct-13 16:00N 37°28' E 004°51'612.8
2017-Oct-13 15:30N 37°27' E 004°43'612.1
2017-Oct-13 15:00N 37°26' E 004°35'612.0
2017-Oct-13 14:28N 37°24' E 004°28'611.9
2017-Oct-13 14:00N 37°23' E 004°21'611.9
2017-Oct-13 13:31N 37°22' E 004°13'5212.0
2017-Oct-13 09:13N 37°12' E 003°10'211.8
2017-Oct-13 09:01N 37°12' E 003°07'612.0
2017-Oct-13 08:31N 37°10' E 002°59'612.2
2017-Oct-13 08:00N 37°09' E 002°52'612.1
2017-Oct-13 07:30N 37°08' E 002°44'612.0
2017-Oct-13 07:00N 37°07' E 002°37'1611.9
2017-Oct-13 05:41N 37°04' E 002°18'312.0
2017-Oct-13 05:25N 37°03' E 002°14'812.5
2017-Oct-13 04:47N 37°02' E 002°04'312.2
2017-Oct-13 04:30N 37°01' E 001°60'712.2
2017-Oct-13 03:57N 37°00' E 001°51'612.2
2017-Oct-13 03:26N 36°59' E 001°44'512.0
2017-Oct-13 03:00N 36°58' E 001°37'611.9
2017-Oct-13 02:30N 36°56' E 001°30'611.8
2017-Oct-13 02:00N 36°55' E 001°23'611.9
2017-Oct-13 01:30N 36°54' E 001°16'611.7
2017-Oct-13 01:00N 36°53' E 001°08'611.5
2017-Oct-13 00:30N 36°52' E 001°01'611.3
2017-Oct-13 00:00N 36°52' E 000°54'611.1
2017-Oct-12 23:30N 36°51' E 000°47'611.5
2017-Oct-12 23:00N 36°50' E 000°40'611.6
2017-Oct-12 22:30N 36°48' E 000°33'611.4
2017-Oct-12 21:59N 36°47' E 000°26'511.4
2017-Oct-12 21:30N 36°46' E 000°19'611.5
2017-Oct-12 21:00N 36°45' E 000°12'611.7
2017-Oct-12 20:30N 36°44' E 000°05'611.7
2017-Oct-12 20:00N 36°42' W 000°02'611.7
2017-Oct-12 19:29N 36°41' W 000°09'611.7
2017-Oct-12 19:00N 36°40' W 000°16'611.6
2017-Oct-12 18:29N 36°38' W 000°23'611.7
2017-Oct-12 18:00N 36°37' W 000°30'611.6
2017-Oct-12 17:30N 36°36' W 000°37'611.8
2017-Oct-12 17:00N 36°35' W 000°45'712.0
2017-Oct-12 16:27N 36°34' W 000°53'612.0
2017-Oct-12 15:59N 36°33' W 000°60'612.3
2017-Oct-12 15:30N 36°32' W 001°07'712.7
2017-Oct-12 14:58N 36°31' W 001°15'612.3
2017-Oct-12 14:27N 36°29' W 001°23'1312.8
2017-Oct-12 13:24N 36°26' W 001°39'15912.0
2017-Oct-12 00:11N 36°03' W 004°54'211.7
2017-Oct-12 00:00N 36°02' W 004°57'611.9
2017-Oct-11 23:30N 36°02' W 005°04'612.0
2017-Oct-11 23:00N 36°01' W 005°11'611.9
2017-Oct-11 22:30N 35°60' W 005°19'611.6
2017-Oct-11 22:00N 35°58' W 005°25'711.7
2017-Oct-11 21:24N 35°56' W 005°34'512.6
2017-Oct-11 21:00N 35°54' W 005°40'612.3
2017-Oct-11 20:30N 35°54' W 005°47'911.6
2017-Oct-11 19:44N 35°54' W 005°58'19910.1
2017-Oct-11 00:00N 37°19' W 009°42'612.1
2017-Oct-10 23:30N 37°25' W 009°44'612.3
2017-Oct-10 23:00N 37°31' W 009°45'612.0
2017-Oct-10 22:30N 37°37' W 009°47'611.8
2017-Oct-10 22:01N 37°42' W 009°49'612.3
2017-Oct-10 21:30N 37°48' W 009°51'611.7
2017-Oct-10 21:00N 37°54' W 009°53'612.2
2017-Oct-10 20:30N 37°60' W 009°54'612.3
2017-Oct-10 20:00N 38°06' W 009°56'612.1
2017-Oct-10 19:30N 38°12' W 009°58'611.8
2017-Oct-10 19:00N 38°18' W 009°60'611.6
2017-Oct-10 18:30N 38°23' W 010°01'611.8
2017-Oct-10 18:00N 38°29' W 010°03'611.9
2017-Oct-10 17:30N 38°35' W 010°05'612.0
2017-Oct-10 17:00N 38°41' W 010°06'611.6
2017-Oct-10 16:30N 38°46' W 010°07'611.8
2017-Oct-10 16:00N 38°52' W 010°06'612.9
2017-Oct-10 15:31N 38°59' W 010°07'713.0
2017-Oct-10 15:00N 39°05' W 010°07'1312.9
2017-Oct-10 14:00N 39°18' W 010°06'611.9
2017-Oct-10 13:30N 39°24' W 010°06'612.0
2017-Oct-10 13:01N 39°30' W 010°06'612.2
2017-Oct-10 12:30N 39°36' W 010°06'611.9
2017-Oct-10 11:59N 39°42' W 010°06'611.9
2017-Oct-10 11:29N 39°48' W 010°06'611.8
2017-Oct-10 11:00N 39°54' W 010°07'611.5
2017-Oct-10 10:30N 39°60' W 010°07'611.6
2017-Oct-10 10:00N 40°06' W 010°07'611.7
2017-Oct-10 09:31N 40°11' W 010°06'612.0
2017-Oct-10 09:00N 40°17' W 010°06'612.2
2017-Oct-10 08:30N 40°23' W 010°06'611.9
2017-Oct-10 08:00N 40°29' W 010°07'612.0
2017-Oct-10 07:30N 40°35' W 010°07'612.1
2017-Oct-10 07:00N 40°41' W 010°07'612.2
2017-Oct-10 06:30N 40°48' W 010°07'612.3
2017-Oct-10 06:00N 40°54' W 010°07'612.1
2017-Oct-10 05:30N 40°60' W 010°07'711.7
2017-Oct-10 04:55N 41°07' W 010°07'512.0
2017-Oct-10 04:30N 41°12' W 010°07'712.4
2017-Oct-10 03:55N 41°19' W 010°07'712.1
2017-Oct-10 03:22N 41°26' W 010°07'611.9
2017-Oct-10 02:51N 41°32' W 010°07'411.8
2017-Oct-10 02:30N 41°36' W 010°07'612.0
2017-Oct-10 02:00N 41°42' W 010°07'611.9
2017-Oct-10 01:30N 41°48' W 010°07'611.9
2017-Oct-10 01:00N 41°54' W 010°07'611.9
2017-Oct-10 00:30N 41°60' W 010°07'611.5
2017-Oct-10 00:00N 42°05' W 010°07'611.6
2017-Oct-09 23:30N 42°11' W 010°06'612.0
2017-Oct-09 23:00N 42°17' W 010°06'612.2
2017-Oct-09 22:30N 42°23' W 010°06'44011.8
2017-Oct-08 09:10N 49°00' W 005°34'512.1
2017-Oct-08 08:44N 49°03' W 005°27'4010.1
2017-Oct-08 04:46N 49°23' W 004°34'310.2
2017-Oct-08 04:26N 49°24' W 004°29'510.6
2017-Oct-08 03:59N 49°27' W 004°23'611.2
2017-Oct-08 03:29N 49°30' W 004°16'611.8
2017-Oct-08 03:00N 49°32' W 004°08'612.4
2017-Oct-08 02:30N 49°36' W 003°60'713.0
2017-Oct-08 02:00N 49°39' W 003°51'713.5
2017-Oct-08 01:30N 49°42' W 003°42'713.8
2017-Oct-08 01:00N 49°45' W 003°32'713.7
2017-Oct-08 00:30N 49°48' W 003°23'713.1
2017-Oct-08 00:00N 49°52' W 003°14'612.5
2017-Oct-07 23:31N 49°55' W 003°06'611.7
2017-Oct-07 23:00N 49°58' W 002°59'610.8
2017-Oct-07 22:30N 50°00' W 002°51'510.0
2017-Oct-07 21:58N 50°02' W 002°43'5 9.1
2017-Oct-07 21:28N 50°03' W 002°36'4 8.5
2017-Oct-07 21:00N 50°04' W 002°30'6 7.9
2017-Oct-07 20:16N 50°05' W 002°21'5410.6
2017-Oct-07 15:12N 50°20' W 001°00'813.4
2017-Oct-07 14:34N 50°22' W 000°47'1112.5
2017-Oct-07 13:42N 50°25' W 000°31'212.0
2017-Oct-07 13:30N 50°25' W 000°28'611.5
2017-Oct-07 13:00N 50°27' W 000°19'510.7
2017-Oct-07 12:30N 50°28' W 000°11'510.1
2017-Oct-07 12:00N 50°30' W 000°03'5 9.4
2017-Oct-07 11:30N 50°31' E 000°04'4 8.8
2017-Oct-07 11:00N 50°32' E 000°11'4 8.3
2017-Oct-07 10:30N 50°33' E 000°17'4 8.0
2017-Oct-07 10:00N 50°34' E 000°23'4 7.8
2017-Oct-07 09:30N 50°35' E 000°29'4 7.9
2017-Oct-07 09:00N 50°37' E 000°35'4 8.4
2017-Oct-07 08:30N 50°38' E 000°41'5 9.5
2017-Oct-07 08:00N 50°41' E 000°47'510.6
2017-Oct-07 07:30N 50°44' E 000°54'611.5
2017-Oct-07 07:00N 50°47' E 001°02'611.9
2017-Oct-07 06:30N 50°50' E 001°10'612.1
2017-Oct-07 06:00N 50°54' E 001°17'612.5
2017-Oct-07 05:30N 50°59' E 001°23'611.6
2017-Oct-07 05:00N 51°03' E 001°29'510.5
2017-Oct-07 04:30N 51°07' E 001°35'5 9.8
2017-Oct-07 04:00N 51°10' E 001°41'5 9.6
2017-Oct-07 03:30N 51°14' E 001°46'5 9.1
2017-Oct-07 03:00N 51°18' E 001°50'4 8.8
2017-Oct-07 02:30N 51°22' E 001°52'4 8.8
2017-Oct-07 02:00N 51°26' E 001°55'5 9.0
2017-Oct-07 01:30N 51°29' E 001°59'5 9.7
2017-Oct-07 01:00N 51°33' E 002°05'510.0
2017-Oct-07 00:30N 51°37' E 002°10'510.3
2017-Oct-07 00:00N 51°40' E 002°16'  
Track history (hours):
 
Tides and Currents Weather Stations Pressure Air Temp Water Temp Dewpoint Dewpoint Depression Visibility Wind Speed Wind Dir Waves Ship Positions

Loch Ness

Last reported at 2017-Oct-16 22:43 UTC. Time now 2017-Oct-18 03:58 UTC.
Position N 35°60' E 020°52'.

Length 200 m; draft 11.8 m.

Type: Cargo ship. MMSI: 374931000.

Date/timePositionNaut miles runAvg speedWind from/ knotsBaromVisibWave heightAir tempDewpointWater temp
2017-Oct-16 22:43N 35°60' E 020°52'211.5
2017-Oct-16 22:30N 35°60' E 020°49'711.6
2017-Oct-16 21:53N 35°59' E 020°40'511.4
2017-Oct-16 21:30N 35°59' E 020°34'611.5
2017-Oct-16 21:00N 35°59' E 020°27'611.6
2017-Oct-16 20:30N 35°59' E 020°20'711.7
2017-Oct-16 19:52N 35°59' E 020°11'611.6
2017-Oct-16 19:21N 35°59' E 020°04'511.5
2017-Oct-16 18:55N 35°59' E 019°58'811.7
2017-Oct-16 18:12N 35°59' E 019°47'7411.5
2017-Oct-16 11:48N 35°57' E 018°16'12911.6
2017-Oct-16 00:38N 35°56' E 015°36'211.5
2017-Oct-16 00:28N 35°56' E 015°34'611.4
2017-Oct-15 23:56N 35°55' E 015°26'611.6
2017-Oct-15 23:27N 35°55' E 015°19'511.8
2017-Oct-15 23:00N 35°54' E 015°13'611.6
2017-Oct-15 22:30N 35°54' E 015°06'611.6
2017-Oct-15 22:00N 35°53' E 014°59'611.9
2017-Oct-15 21:30N 35°53' E 014°51'4 7.4
2017-Oct-15 21:00N 35°53' E 014°47'0 0.2
2017-Oct-15 20:30N 35°53' E 014°47'0 0.0
2017-Oct-15 20:01N 35°53' E 014°47'0 0.0
2017-Oct-15 19:30N 35°53' E 014°47'0 0.0
2017-Oct-15 19:01N 35°53' E 014°47'0 0.0
2017-Oct-15 18:30N 35°53' E 014°47'0 0.0
2017-Oct-15 18:01N 35°53' E 014°47'0 0.2
2017-Oct-15 17:30N 35°53' E 014°47'0 0.2
2017-Oct-15 16:57N 35°53' E 014°47'0 0.0
2017-Oct-15 16:30N 35°53' E 014°47'0 0.0
2017-Oct-15 16:01N 35°53' E 014°47'0 0.0
2017-Oct-15 15:30N 35°53' E 014°47'0 0.0
2017-Oct-15 15:00N 35°53' E 014°47'0 0.0
2017-Oct-15 14:00N 35°53' E 014°47'0 0.0
2017-Oct-15 13:31N 35°53' E 014°47'0 0.0
2017-Oct-15 12:58N 35°53' E 014°47'0 0.2
2017-Oct-15 12:31N 35°53' E 014°47'0 0.5
2017-Oct-15 12:00N 35°53' E 014°46'2 4.3
2017-Oct-15 11:30N 35°54' E 014°44'510.1
2017-Oct-15 11:00N 35°58' E 014°40'612.0
2017-Oct-15 10:30N 36°02' E 014°34'611.9
2017-Oct-15 10:00N 36°07' E 014°30'611.8
2017-Oct-15 09:30N 36°11' E 014°25'611.8
2017-Oct-15 09:00N 36°16' E 014°21'612.0
2017-Oct-15 08:30N 36°21' E 014°17'612.1
2017-Oct-15 08:00N 36°26' E 014°13'612.3
2017-Oct-15 07:31N 36°32' E 014°09'612.6
2017-Oct-15 07:01N 36°37' E 014°05'612.8
2017-Oct-15 06:30N 36°41' E 013°59'612.8
2017-Oct-15 06:00N 36°45' E 013°53'612.7
2017-Oct-15 05:30N 36°49' E 013°46'612.7
2017-Oct-15 05:01N 36°52' E 013°39'612.7
2017-Oct-15 04:30N 36°56' E 013°33'612.6
2017-Oct-15 04:00N 36°59' E 013°26'612.4
2017-Oct-15 03:30N 37°02' E 013°19'812.2
2017-Oct-15 02:49N 37°07' E 013°11'512.2
2017-Oct-15 02:25N 37°10' E 013°06'711.9
2017-Oct-15 01:52N 37°13' E 012°59'411.8
2017-Oct-15 01:30N 37°16' E 012°54'611.9
2017-Oct-15 00:59N 37°19' E 012°48'611.9
2017-Oct-15 00:30N 37°22' E 012°41'611.9
2017-Oct-15 00:00N 37°25' E 012°35'33611.5
2017-Oct-13 18:48N 37°34' E 005°31'1211.5
2017-Oct-13 17:46N 37°32' E 005°17'1011.7
2017-Oct-13 16:53N 37°30' E 005°04'511.8
2017-Oct-13 16:27N 37°29' E 004°57'512.0
2017-Oct-13 16:00N 37°28' E 004°51'612.8
2017-Oct-13 15:30N 37°27' E 004°43'612.1
2017-Oct-13 15:00N 37°26' E 004°35'612.0
2017-Oct-13 14:28N 37°24' E 004°28'611.9
2017-Oct-13 14:00N 37°23' E 004°21'611.9
2017-Oct-13 13:31N 37°22' E 004°13'5212.0
2017-Oct-13 09:13N 37°12' E 003°10'211.8
2017-Oct-13 09:01N 37°12' E 003°07'612.0
2017-Oct-13 08:31N 37°10' E 002°59'612.2
2017-Oct-13 08:00N 37°09' E 002°52'612.1
2017-Oct-13 07:30N 37°08' E 002°44'612.0
2017-Oct-13 07:00N 37°07' E 002°37'1611.9
2017-Oct-13 05:41N 37°04' E 002°18'312.0
2017-Oct-13 05:25N 37°03' E 002°14'812.5
2017-Oct-13 04:47N 37°02' E 002°04'312.2
2017-Oct-13 04:30N 37°01' E 001°60'712.2
2017-Oct-13 03:57N 37°00' E 001°51'612.2
2017-Oct-13 03:26N 36°59' E 001°44'512.0
2017-Oct-13 03:00N 36°58' E 001°37'611.9
2017-Oct-13 02:30N 36°56' E 001°30'611.8
2017-Oct-13 02:00N 36°55' E 001°23'611.9
2017-Oct-13 01:30N 36°54' E 001°16'611.7
2017-Oct-13 01:00N 36°53' E 001°08'611.5
2017-Oct-13 00:30N 36°52' E 001°01'611.3
2017-Oct-13 00:00N 36°52' E 000°54'611.1
2017-Oct-12 23:30N 36°51' E 000°47'611.5
2017-Oct-12 23:00N 36°50' E 000°40'611.6
2017-Oct-12 22:30N 36°48' E 000°33'611.4
2017-Oct-12 21:59N 36°47' E 000°26'511.4
2017-Oct-12 21:30N 36°46' E 000°19'611.5
2017-Oct-12 21:00N 36°45' E 000°12'611.7
2017-Oct-12 20:30N 36°44' E 000°05'611.7
2017-Oct-12 20:00N 36°42' W 000°02'611.7
2017-Oct-12 19:29N 36°41' W 000°09'611.7
2017-Oct-12 19:00N 36°40' W 000°16'611.6
2017-Oct-12 18:29N 36°38' W 000°23'611.7
2017-Oct-12 18:00N 36°37' W 000°30'611.6
2017-Oct-12 17:30N 36°36' W 000°37'611.8
2017-Oct-12 17:00N 36°35' W 000°45'712.0
2017-Oct-12 16:27N 36°34' W 000°53'612.0
2017-Oct-12 15:59N 36°33' W 000°60'612.3
2017-Oct-12 15:30N 36°32' W 001°07'712.7
2017-Oct-12 14:58N 36°31' W 001°15'612.3
2017-Oct-12 14:27N 36°29' W 001°23'1312.8
2017-Oct-12 13:24N 36°26' W 001°39'15912.0
2017-Oct-12 00:11N 36°03' W 004°54'211.7
2017-Oct-12 00:00N 36°02' W 004°57'611.9
2017-Oct-11 23:30N 36°02' W 005°04'612.0
2017-Oct-11 23:00N 36°01' W 005°11'611.9
2017-Oct-11 22:30N 35°60' W 005°19'611.6
2017-Oct-11 22:00N 35°58' W 005°25'711.7
2017-Oct-11 21:24N 35°56' W 005°34'512.6
2017-Oct-11 21:00N 35°54' W 005°40'612.3
2017-Oct-11 20:30N 35°54' W 005°47'911.6
2017-Oct-11 19:44N 35°54' W 005°58'19910.1
2017-Oct-11 00:00N 37°19' W 009°42'612.1
2017-Oct-10 23:30N 37°25' W 009°44'612.3
2017-Oct-10 23:00N 37°31' W 009°45'612.0
2017-Oct-10 22:30N 37°37' W 009°47'611.8
2017-Oct-10 22:01N 37°42' W 009°49'612.3
2017-Oct-10 21:30N 37°48' W 009°51'611.7
2017-Oct-10 21:00N 37°54' W 009°53'612.2
2017-Oct-10 20:30N 37°60' W 009°54'612.3
2017-Oct-10 20:00N 38°06' W 009°56'612.1
2017-Oct-10 19:30N 38°12' W 009°58'611.8
2017-Oct-10 19:00N 38°18' W 009°60'611.6
2017-Oct-10 18:30N 38°23' W 010°01'611.8
2017-Oct-10 18:00N 38°29' W 010°03'611.9
2017-Oct-10 17:30N 38°35' W 010°05'612.0
2017-Oct-10 17:00N 38°41' W 010°06'611.6
2017-Oct-10 16:30N 38°46' W 010°07'611.8
2017-Oct-10 16:00N 38°52' W 010°06'612.9
2017-Oct-10 15:31N 38°59' W 010°07'713.0
2017-Oct-10 15:00N 39°05' W 010°07'1312.9
2017-Oct-10 14:00N 39°18' W 010°06'611.9
2017-Oct-10 13:30N 39°24' W 010°06'612.0
2017-Oct-10 13:01N 39°30' W 010°06'612.2
2017-Oct-10 12:30N 39°36' W 010°06'611.9
2017-Oct-10 11:59N 39°42' W 010°06'611.9
2017-Oct-10 11:29N 39°48' W 010°06'611.8
2017-Oct-10 11:00N 39°54' W 010°07'611.5
2017-Oct-10 10:30N 39°60' W 010°07'611.6
2017-Oct-10 10:00N 40°06' W 010°07'611.7
2017-Oct-10 09:31N 40°11' W 010°06'612.0
2017-Oct-10 09:00N 40°17' W 010°06'612.2
2017-Oct-10 08:30N 40°23' W 010°06'611.9
2017-Oct-10 08:00N 40°29' W 010°07'612.0
2017-Oct-10 07:30N 40°35' W 010°07'612.1
2017-Oct-10 07:00N 40°41' W 010°07'612.2
2017-Oct-10 06:30N 40°48' W 010°07'612.3
2017-Oct-10 06:00N 40°54' W 010°07'612.1
2017-Oct-10 05:30N 40°60' W 010°07'711.7
2017-Oct-10 04:55N 41°07' W 010°07'512.0
2017-Oct-10 04:30N 41°12' W 010°07'712.4
2017-Oct-10 03:55N 41°19' W 010°07'712.1
2017-Oct-10 03:22N 41°26' W 010°07'611.9
2017-Oct-10 02:51N 41°32' W 010°07'411.8
2017-Oct-10 02:30N 41°36' W 010°07'612.0
2017-Oct-10 02:00N 41°42' W 010°07'611.9
2017-Oct-10 01:30N 41°48' W 010°07'611.9
2017-Oct-10 01:00N 41°54' W 010°07'611.9
2017-Oct-10 00:30N 41°60' W 010°07'611.5
2017-Oct-10 00:00N 42°05' W 010°07'611.6
2017-Oct-09 23:30N 42°11' W 010°06'612.0
2017-Oct-09 23:00N 42°17' W 010°06'612.2
2017-Oct-09 22:30N 42°23' W 010°06'44011.8
2017-Oct-08 09:10N 49°00' W 005°34'512.1
2017-Oct-08 08:44N 49°03' W 005°27'4010.1
2017-Oct-08 04:46N 49°23' W 004°34'310.2
2017-Oct-08 04:26N 49°24' W 004°29'510.6
2017-Oct-08 03:59N 49°27' W 004°23'611.2
2017-Oct-08 03:29N 49°30' W 004°16'611.8
2017-Oct-08 03:00N 49°32' W 004°08'612.4
2017-Oct-08 02:30N 49°36' W 003°60'713.0
2017-Oct-08 02:00N 49°39' W 003°51'713.5
2017-Oct-08 01:30N 49°42' W 003°42'713.8
2017-Oct-08 01:00N 49°45' W 003°32'713.7
2017-Oct-08 00:30N 49°48' W 003°23'713.1
2017-Oct-08 00:00N 49°52' W 003°14'612.5
2017-Oct-07 23:31N 49°55' W 003°06'611.7
2017-Oct-07 23:00N 49°58' W 002°59'610.8
2017-Oct-07 22:30N 50°00' W 002°51'510.0
2017-Oct-07 21:58N 50°02' W 002°43'5 9.1
2017-Oct-07 21:28N 50°03' W 002°36'4 8.5
2017-Oct-07 21:00N 50°04' W 002°30'6 7.9
2017-Oct-07 20:16N 50°05' W 002°21'5410.6
2017-Oct-07 15:12N 50°20' W 001°00'813.4
2017-Oct-07 14:34N 50°22' W 000°47'1112.5
2017-Oct-07 13:42N 50°25' W 000°31'212.0
2017-Oct-07 13:30N 50°25' W 000°28'611.5
2017-Oct-07 13:00N 50°27' W 000°19'510.7
2017-Oct-07 12:30N 50°28' W 000°11'510.1
2017-Oct-07 12:00N 50°30' W 000°03'5 9.4
2017-Oct-07 11:30N 50°31' E 000°04'4 8.8
2017-Oct-07 11:00N 50°32' E 000°11'4 8.3
2017-Oct-07 10:30N 50°33' E 000°17'4 8.0
2017-Oct-07 10:00N 50°34' E 000°23'4 7.8
2017-Oct-07 09:30N 50°35' E 000°29'4 7.9
2017-Oct-07 09:00N 50°37' E 000°35'4 8.4
2017-Oct-07 08:30N 50°38' E 000°41'5 9.5
2017-Oct-07 08:00N 50°41' E 000°47'510.6
2017-Oct-07 07:30N 50°44' E 000°54'611.5
2017-Oct-07 07:00N 50°47' E 001°02'611.9
2017-Oct-07 06:30N 50°50' E 001°10'612.1
2017-Oct-07 06:00N 50°54' E 001°17'612.5
2017-Oct-07 05:30N 50°59' E 001°23'611.6
2017-Oct-07 05:00N 51°03' E 001°29'510.5
2017-Oct-07 04:30N 51°07' E 001°35'5 9.8
2017-Oct-07 04:00N 51°10' E 001°41'5 9.6
2017-Oct-07 03:30N 51°14' E 001°46'5 9.1
2017-Oct-07 03:00N 51°18' E 001°50'4 8.8
2017-Oct-07 02:30N 51°22' E 001°52'4 8.8
2017-Oct-07 02:00N 51°26' E 001°55'5 9.0
2017-Oct-07 01:30N 51°29' E 001°59'5 9.7
2017-Oct-07 01:00N 51°33' E 002°05'510.0
2017-Oct-07 00:30N 51°37' E 002°10'510.3
2017-Oct-07 00:00N 51°40' E 002°16'  

Dump ship's entire track history